createdAt,value
2023-05-10T00:04:49.054Z,11.82
2023-05-10T00:07:16.869Z,8.90
2023-05-10T00:09:43.286Z,7.27
2023-05-10T00:12:10.042Z,6.38
2023-05-10T00:14:36.620Z,10.38
2023-05-10T00:17:03.110Z,6.65
2023-05-10T00:19:29.598Z,7.88
2023-05-10T00:21:56.335Z,7.80
2023-05-10T00:24:22.851Z,6.10
2023-05-10T00:26:49.313Z,8.07
2023-05-10T00:29:15.824Z,7.95
2023-05-10T00:31:42.359Z,8.85
2023-05-10T00:34:08.874Z,6.73
2023-05-10T00:36:35.374Z,8.07
2023-05-10T00:39:01.849Z,9.18
2023-05-10T00:41:28.588Z,7.60
2023-05-10T00:43:55.072Z,8.88
2023-05-10T00:46:22.401Z,8.57
2023-05-10T00:48:49.580Z,12.00
2023-05-10T00:51:16.291Z,10.07
2023-05-10T00:53:43.712Z,7.13
2023-05-10T00:56:10.222Z,8.82
2023-05-10T00:58:37.316Z,8.30
2023-05-10T01:01:04.478Z,8.90
2023-05-10T01:03:31.900Z,7.18
2023-05-10T01:05:58.496Z,8.20
2023-05-10T01:08:26.712Z,6.43
2023-05-10T01:10:53.626Z,7.77
2023-05-10T01:13:37.207Z,5.72
2023-05-10T01:16:04.566Z,5.60
2023-05-10T01:18:34.088Z,6.80
2023-05-10T01:21:12.294Z,7.15
2023-05-10T01:24:03.601Z,10.23
2023-05-10T01:26:55.403Z,6.68
2023-05-10T01:30:05.036Z,6.13
2023-05-10T01:32:54.323Z,5.80
2023-05-10T01:35:38.606Z,7.03
2023-05-10T01:38:23.611Z,8.13
2023-05-10T01:41:17.338Z,7.32
2023-05-10T01:43:53.806Z,6.05
2023-05-10T01:46:36.166Z,8.32
2023-05-10T01:49:05.078Z,5.63
2023-05-10T01:51:49.999Z,7.33
2023-05-10T01:54:20.435Z,6.07
2023-05-10T01:56:51.366Z,5.20
2023-05-10T01:59:20.154Z,6.93
2023-05-10T02:01:48.610Z,5.32
2023-05-10T02:04:17.749Z,5.80
2023-05-10T02:06:46.059Z,5.93
2023-05-10T02:09:14.612Z,8.63
2023-05-10T02:11:44.718Z,6.05
2023-05-10T02:14:12.566Z,8.63
2023-05-10T02:16:41.549Z,7.90
2023-05-10T02:19:09.761Z,7.30
2023-05-10T02:21:38.092Z,7.70
2023-05-10T02:24:06.091Z,8.77
2023-05-10T02:26:34.156Z,7.15
2023-05-10T02:29:04.135Z,8.40
2023-05-10T02:31:33.305Z,5.05
2023-05-10T02:34:01.687Z,8.48
2023-05-10T02:36:29.620Z,5.38
2023-05-10T02:38:56.975Z,6.82
2023-05-10T02:41:24.168Z,6.43
2023-05-10T02:43:53.380Z,6.85
2023-05-10T02:46:20.165Z,6.95
2023-05-10T02:48:46.760Z,8.27
2023-05-10T02:51:18.591Z,11.18
2023-05-10T02:53:47.947Z,6.83
2023-05-10T02:56:32.682Z,8.13
2023-05-10T02:58:59.189Z,9.57
2023-05-10T03:01:25.765Z,12.55
2023-05-10T03:03:52.338Z,8.35
2023-05-10T03:06:18.822Z,8.20
2023-05-10T03:08:46.119Z,6.93
2023-05-10T03:11:45.740Z,9.52
2023-05-10T03:14:24.481Z,9.05
2023-05-10T03:17:23.285Z,6.60
2023-05-10T03:20:05.304Z,7.90
2023-05-10T03:22:35.760Z,8.77
2023-05-10T03:25:07.068Z,8.55
2023-05-10T03:27:36.187Z,7.40
2023-05-10T03:30:03.542Z,7.65
2023-05-10T03:32:32.798Z,8.77
2023-05-10T03:34:59.295Z,9.02
2023-05-10T03:37:25.795Z,10.82
2023-05-10T03:39:52.302Z,9.32
2023-05-10T03:42:18.948Z,9.05
2023-05-10T03:44:45.389Z,7.97
2023-05-10T03:47:11.889Z,7.75
2023-05-10T03:49:38.363Z,8.98
2023-05-10T03:52:05.027Z,7.25
2023-05-10T03:54:31.627Z,6.10
2023-05-10T03:56:58.075Z,7.53
2023-05-10T03:59:24.665Z,5.68
2023-05-10T04:01:51.095Z,10.05
2023-05-10T04:04:19.575Z,5.22
2023-05-10T04:06:46.244Z,7.72
2023-05-10T04:09:12.909Z,8.53
2023-05-10T04:11:39.389Z,5.10
2023-05-10T04:14:05.983Z,8.52
2023-05-10T04:16:32.555Z,8.48
2023-05-10T04:18:59.162Z,7.18
2023-05-10T04:21:25.650Z,5.97
2023-05-10T04:23:52.075Z,8.73
2023-05-10T04:26:18.607Z,7.63
2023-05-10T04:28:45.080Z,7.78
2023-05-10T04:31:11.592Z,8.27
2023-05-10T04:33:38.277Z,8.57
2023-05-10T04:36:05.322Z,7.53
2023-05-10T04:38:31.788Z,5.90
2023-05-10T04:41:09.156Z,5.72
2023-05-10T04:43:36.354Z,6.45
2023-05-10T04:46:03.340Z,8.23
2023-05-10T04:48:30.183Z,7.50
2023-05-10T04:50:57.373Z,9.13
2023-05-10T04:53:24.024Z,7.40
2023-05-10T04:55:50.728Z,6.95
2023-05-10T04:58:17.371Z,8.13
2023-05-10T05:00:43.916Z,8.27
2023-05-10T05:03:10.753Z,6.82
2023-05-10T05:05:37.352Z,8.25
2023-05-10T05:08:04.173Z,7.63
2023-05-10T05:10:30.964Z,5.83
2023-05-10T05:12:57.464Z,8.68
2023-05-10T05:15:24.138Z,6.35
2023-05-10T05:17:50.659Z,8.10
2023-05-10T05:20:17.463Z,7.03
2023-05-10T05:22:44.268Z,5.78
2023-05-10T05:25:10.822Z,6.30
2023-05-10T05:27:37.333Z,7.07
2023-05-10T05:30:05.189Z,7.30
2023-05-10T05:32:31.727Z,6.18
2023-05-10T05:34:58.246Z,6.63
2023-05-10T05:37:25.412Z,8.85
2023-05-10T05:39:51.959Z,5.00
2023-05-10T05:42:19.728Z,5.85
2023-05-10T05:44:46.697Z,6.35
2023-05-10T05:47:13.304Z,4.90
2023-05-10T05:49:40.349Z,5.47
2023-05-10T05:52:06.836Z,6.20
2023-05-10T05:54:33.454Z,8.15
2023-05-10T05:57:01.539Z,7.63
2023-05-10T05:59:28.431Z,6.88
2023-05-10T06:01:55.120Z,8.23
2023-05-10T06:04:21.901Z,6.88
2023-05-10T06:06:48.513Z,5.65
2023-05-10T06:09:15.098Z,7.88
2023-05-10T06:11:41.678Z,7.55
2023-05-10T06:14:08.870Z,6.77
2023-05-10T06:16:36.034Z,5.30
2023-05-10T06:19:03.563Z,8.70
2023-05-10T06:21:30.197Z,6.50
2023-05-10T06:23:56.801Z,5.80
2023-05-10T06:26:23.537Z,5.03
2023-05-10T06:28:50.056Z,5.82
2023-05-10T06:31:17.066Z,8.35
2023-05-10T06:33:43.536Z,5.13
2023-05-10T06:36:10.003Z,4.90
2023-05-10T06:38:36.470Z,7.40
2023-05-10T06:41:02.979Z,5.55
2023-05-10T06:43:29.767Z,5.60
2023-05-10T06:45:56.855Z,4.20
2023-05-10T06:48:23.530Z,9.05
2023-05-10T06:50:50.126Z,6.43
2023-05-10T06:53:16.662Z,5.10
2023-05-10T06:55:43.122Z,5.43
2023-05-10T06:58:09.635Z,6.10
2023-05-10T07:00:36.201Z,4.85
2023-05-10T07:03:02.773Z,5.13
2023-05-10T07:05:30.416Z,5.03
2023-05-10T07:07:56.951Z,3.67
2023-05-10T07:10:23.445Z,4.95
2023-05-10T07:12:50.062Z,3.97
2023-05-10T07:15:17.134Z,5.83
2023-05-10T07:17:45.896Z,5.93
2023-05-10T07:20:13.141Z,5.00
2023-05-10T07:22:39.620Z,5.57
2023-05-10T07:25:06.758Z,4.75
2023-05-10T07:27:33.550Z,5.47
2023-05-10T07:30:00.256Z,4.53
2023-05-10T07:32:26.910Z,4.18
2023-05-10T07:34:53.599Z,4.10
2023-05-10T07:37:20.182Z,6.20
2023-05-10T07:39:46.780Z,4.93
2023-05-10T07:42:13.241Z,4.25
2023-05-10T07:44:39.679Z,11.80
2023-05-10T07:47:06.259Z,4.72
2023-05-10T07:49:32.678Z,4.95
2023-05-10T07:51:59.151Z,6.63
2023-05-10T07:54:25.712Z,4.60
2023-05-10T07:56:52.320Z,6.05
2023-05-10T07:59:18.901Z,5.00
2023-05-10T08:01:45.972Z,7.20
2023-05-10T08:04:12.832Z,3.97
2023-05-10T08:06:40.480Z,7.03
2023-05-10T08:09:07.312Z,4.10
2023-05-10T08:11:35.035Z,6.60
2023-05-10T08:14:01.781Z,4.40
2023-05-10T08:16:28.600Z,5.22
2023-05-10T08:18:56.309Z,3.78
2023-05-10T08:21:23.000Z,3.47
2023-05-10T08:23:50.099Z,3.53
2023-05-10T08:26:16.773Z,6.90
2023-05-10T08:28:43.268Z,5.25
2023-05-10T08:31:09.850Z,5.57
2023-05-10T08:33:36.461Z,3.83
2023-05-10T08:36:03.002Z,3.83
2023-05-10T08:38:29.663Z,7.88
2023-05-10T08:41:00.029Z,5.10
2023-05-10T08:43:30.223Z,3.63
2023-05-10T08:45:59.820Z,3.30
2023-05-10T08:48:29.849Z,8.30
2023-05-10T08:51:01.106Z,3.38
2023-05-10T08:53:29.740Z,3.10
2023-05-10T08:55:56.556Z,3.58
2023-05-10T08:58:23.252Z,4.18
2023-05-10T09:00:52.443Z,3.03
2023-05-10T09:03:19.229Z,4.35
2023-05-10T09:05:46.145Z,2.97
2023-05-10T09:08:13.904Z,3.75
2023-05-10T09:10:41.062Z,4.05
2023-05-10T09:13:10.042Z,3.58
2023-05-10T09:15:36.533Z,3.55
2023-05-10T09:18:03.462Z,4.32
2023-05-10T09:20:30.053Z,4.72
2023-05-10T09:22:56.636Z,3.40
2023-05-10T09:25:23.649Z,3.17
2023-05-10T09:27:50.400Z,5.93
2023-05-10T09:30:30.833Z,2.57
2023-05-10T09:32:59.398Z,5.43
2023-05-10T09:35:31.207Z,7.25
2023-05-10T09:38:01.685Z,2.45
2023-05-10T09:40:29.895Z,3.25
2023-05-10T09:43:02.390Z,3.27
2023-05-10T09:45:36.128Z,2.88
2023-05-10T09:48:04.703Z,3.20
2023-05-10T09:50:31.635Z,2.13
2023-05-10T09:53:00.184Z,2.30
2023-05-10T09:55:40.091Z,5.77
2023-05-10T09:58:11.130Z,2.70
2023-05-10T10:00:42.148Z,3.28
2023-05-10T10:03:15.640Z,2.97
2023-05-10T10:05:44.238Z,4.65
2023-05-10T10:08:12.123Z,2.80
2023-05-10T10:10:41.266Z,1.80
2023-05-10T10:13:08.471Z,2.20
2023-05-10T10:15:36.535Z,1.73
2023-05-10T10:18:05.198Z,4.43
2023-05-10T10:20:32.534Z,2.70
2023-05-10T10:22:59.078Z,4.57
2023-05-10T10:25:26.426Z,2.35
2023-05-10T10:27:52.812Z,2.72
2023-05-10T10:30:25.246Z,2.10
2023-05-10T10:33:28.829Z,2.33
2023-05-10T10:35:58.952Z,3.00
2023-05-10T10:38:25.639Z,3.58
2023-05-10T10:41:10.980Z,4.03
2023-05-10T10:43:37.574Z,3.42
2023-05-10T10:46:15.652Z,7.47
2023-05-10T10:48:47.962Z,1.88
2023-05-10T10:51:15.297Z,2.67
2023-05-10T10:53:42.354Z,2.78
2023-05-10T10:56:11.012Z,2.30
2023-05-10T10:58:39.314Z,2.37
2023-05-10T11:01:17.997Z,2.90
2023-05-10T11:04:20.816Z,2.58
2023-05-10T11:06:47.395Z,2.92
2023-05-10T11:09:13.993Z,3.15
2023-05-10T11:11:52.934Z,2.60
2023-05-10T11:14:22.795Z,2.53
2023-05-10T11:16:49.424Z,4.07
2023-05-10T11:19:17.533Z,2.45
2023-05-10T11:22:16.581Z,2.38
2023-05-10T11:24:57.678Z,1.83
2023-05-10T11:27:24.345Z,3.15
2023-05-10T11:29:53.714Z,3.28
2023-05-10T11:32:20.681Z,2.30
2023-05-10T11:34:48.941Z,3.38
2023-05-10T11:37:15.484Z,2.27
2023-05-10T11:39:48.180Z,3.47
2023-05-10T11:42:14.688Z,3.40
2023-05-10T11:44:42.020Z,4.32
2023-05-10T11:47:08.614Z,3.63
2023-05-10T11:49:35.085Z,2.40
2023-05-10T11:52:06.286Z,2.47
2023-05-10T11:54:32.796Z,5.57
2023-05-10T11:56:59.247Z,4.93
2023-05-10T11:59:26.301Z,4.28
2023-05-10T12:01:52.973Z,3.57
2023-05-10T12:04:20.075Z,4.97
2023-05-10T12:06:47.614Z,2.65
2023-05-10T12:09:15.766Z,3.65
2023-05-10T12:11:44.504Z,4.38
2023-05-10T12:14:11.893Z,3.37
2023-05-10T12:16:38.606Z,3.63
2023-05-10T12:19:06.452Z,6.72
2023-05-10T12:21:33.729Z,3.75
2023-05-10T12:24:02.662Z,3.10
2023-05-10T12:26:30.253Z,2.63
2023-05-10T12:29:13.271Z,2.33
2023-05-10T12:31:57.305Z,2.67
2023-05-10T12:34:35.250Z,2.30
2023-05-10T12:37:02.483Z,3.25
2023-05-10T12:39:42.913Z,3.53
2023-05-10T12:42:10.056Z,2.72
2023-05-10T12:44:36.642Z,2.90
2023-05-10T12:47:03.490Z,2.65
2023-05-10T12:49:30.202Z,2.33
2023-05-10T12:51:56.709Z,2.43
2023-05-10T12:54:23.189Z,3.22
2023-05-10T12:56:49.645Z,3.47
2023-05-10T12:59:16.094Z,3.10
2023-05-10T13:01:42.654Z,4.13
2023-05-10T13:04:09.167Z,3.53
2023-05-10T13:06:36.114Z,2.90
2023-05-10T13:09:02.649Z,3.40
2023-05-10T13:11:29.127Z,3.42
2023-05-10T13:13:56.557Z,4.07
2023-05-10T13:16:23.465Z,4.33
2023-05-10T13:18:50.055Z,3.47
2023-05-10T13:21:17.584Z,3.00
2023-05-10T13:23:44.076Z,3.20
2023-05-10T13:26:10.613Z,2.70
2023-05-10T13:28:37.120Z,2.93
2023-05-10T13:31:03.734Z,3.28
2023-05-10T13:33:30.302Z,3.95
2023-05-10T13:35:56.835Z,4.13
2023-05-10T13:38:23.393Z,3.72
2023-05-10T13:40:53.411Z,3.33
2023-05-10T13:43:20.494Z,3.75
2023-05-10T13:45:47.086Z,3.78
2023-05-10T13:48:13.688Z,3.58
2023-05-10T13:50:40.226Z,5.35
2023-05-10T13:53:06.758Z,3.67
2023-05-10T13:55:33.389Z,3.58
2023-05-10T13:57:59.966Z,3.58
2023-05-10T14:00:26.469Z,3.75
2023-05-10T14:02:53.150Z,3.47
2023-05-10T14:05:23.839Z,3.50
2023-05-10T14:07:52.284Z,4.05
2023-05-10T14:10:18.781Z,2.97
2023-05-10T14:12:45.275Z,3.50
2023-05-10T14:15:12.590Z,3.88
2023-05-10T14:17:39.147Z,4.83
2023-05-10T14:20:06.451Z,3.58
2023-05-10T14:22:32.946Z,4.25
2023-05-10T14:24:59.510Z,3.72
2023-05-10T14:27:26.076Z,3.58
2023-05-10T14:29:52.998Z,4.87
2023-05-10T14:32:19.706Z,5.20
2023-05-10T14:34:46.450Z,4.40
2023-05-10T14:37:14.931Z,3.65
2023-05-10T14:39:41.780Z,3.53
2023-05-10T14:42:08.512Z,4.73
2023-05-10T14:44:35.065Z,3.60
2023-05-10T14:47:01.645Z,3.65
2023-05-10T14:49:28.186Z,3.40
2023-05-10T14:51:54.736Z,4.88
2023-05-10T14:54:21.579Z,3.60
2023-05-10T14:56:49.827Z,4.00
2023-05-10T14:59:16.727Z,5.75
2023-05-10T15:01:44.095Z,3.33
2023-05-10T15:04:11.285Z,4.07
2023-05-10T15:06:38.137Z,3.63
2023-05-10T15:09:04.854Z,4.30
2023-05-10T15:11:31.521Z,5.15
2023-05-10T15:13:58.036Z,4.25
2023-05-10T15:16:24.878Z,3.75
2023-05-10T15:18:51.705Z,5.20
2023-05-10T15:21:18.269Z,4.43
2023-05-10T15:23:45.217Z,4.57
2023-05-10T15:26:11.750Z,3.63
2023-05-10T15:28:38.289Z,6.03
2023-05-10T15:31:06.277Z,3.63
2023-05-10T15:33:32.865Z,3.90
2023-05-10T15:35:59.316Z,4.25
2023-05-10T15:38:25.846Z,4.93
2023-05-10T15:40:55.891Z,3.35
2023-05-10T15:43:22.469Z,3.57
2023-05-10T15:45:49.032Z,3.75
2023-05-10T15:48:15.612Z,3.10
2023-05-10T15:50:42.248Z,3.65
2023-05-10T15:53:08.760Z,2.97
2023-05-10T15:55:35.418Z,3.77
2023-05-10T15:58:02.079Z,3.83
2023-05-10T16:00:28.919Z,2.53
2023-05-10T16:02:55.574Z,2.95
2023-05-10T16:05:22.676Z,3.17
2023-05-10T16:07:49.672Z,4.03
2023-05-10T16:10:16.346Z,2.72
2023-05-10T16:12:42.934Z,3.67
2023-05-10T16:15:10.158Z,3.30
2023-05-10T16:17:37.413Z,3.25
2023-05-10T16:20:05.073Z,3.87
2023-05-10T16:22:31.693Z,3.08
2023-05-10T16:24:59.886Z,3.15
2023-05-10T16:27:28.734Z,3.13
2023-05-10T16:29:55.627Z,3.50
2023-05-10T16:32:22.299Z,5.20
2023-05-10T16:34:50.297Z,6.90
2023-05-10T16:37:16.886Z,4.03
2023-05-10T16:39:43.449Z,4.72
2023-05-10T16:42:09.932Z,3.03
2023-05-10T16:44:36.835Z,3.93
2023-05-10T16:47:03.432Z,3.05
2023-05-10T16:49:29.934Z,2.90
2023-05-10T16:51:56.505Z,3.05
2023-05-10T16:54:23.331Z,4.78
2023-05-10T16:56:49.839Z,4.73
2023-05-10T16:59:16.590Z,4.05
2023-05-10T17:01:43.650Z,3.88
2023-05-10T17:04:10.288Z,3.13
2023-05-10T17:06:37.534Z,4.88
2023-05-10T17:09:05.622Z,3.00
2023-05-10T17:11:32.749Z,2.90
2023-05-10T17:13:59.662Z,6.32
2023-05-10T17:16:26.205Z,3.85
2023-05-10T17:18:53.063Z,4.15
2023-05-10T17:21:19.721Z,3.50
2023-05-10T17:23:46.295Z,2.90
2023-05-10T17:26:12.957Z,4.68
2023-05-10T17:28:39.529Z,3.28
2023-05-10T17:31:05.996Z,4.88
2023-05-10T17:33:32.580Z,7.57
2023-05-10T17:35:59.151Z,3.20
2023-05-10T17:38:26.245Z,3.03
2023-05-10T17:40:52.764Z,3.88
2023-05-10T17:43:20.834Z,3.58
2023-05-10T17:45:50.233Z,2.93
2023-05-10T17:48:17.317Z,3.13
2023-05-10T17:50:44.415Z,4.38
2023-05-10T17:53:11.163Z,3.28
2023-05-10T17:55:41.170Z,4.07
2023-05-10T17:58:08.070Z,4.53
2023-05-10T18:00:34.692Z,4.95
2023-05-10T18:03:02.403Z,4.47
2023-05-10T18:05:29.022Z,5.78
2023-05-10T18:07:56.407Z,4.93
2023-05-10T18:10:24.423Z,5.83
2023-05-10T18:12:51.663Z,7.50
2023-05-10T18:15:18.358Z,6.80
2023-05-10T18:17:45.337Z,7.13
2023-05-10T18:20:13.001Z,4.32
2023-05-10T18:22:39.932Z,7.77
2023-05-10T18:25:07.016Z,7.88
2023-05-10T18:27:34.352Z,9.35
2023-05-10T18:30:00.860Z,6.53
2023-05-10T18:32:28.145Z,4.78
2023-05-10T18:34:55.885Z,4.90
2023-05-10T18:37:22.550Z,5.85
2023-05-10T18:39:49.334Z,3.63
2023-05-10T18:42:16.405Z,6.05
2023-05-10T18:44:42.853Z,5.47
2023-05-10T18:47:09.425Z,4.20
2023-05-10T18:49:35.859Z,5.72
2023-05-10T18:52:02.394Z,6.78
2023-05-10T18:54:29.812Z,4.22
2023-05-10T18:56:57.396Z,5.55
2023-05-10T18:59:25.002Z,4.15
2023-05-10T19:01:52.670Z,5.78
2023-05-10T19:04:20.611Z,5.15
2023-05-10T19:06:47.402Z,3.42
2023-05-10T19:09:14.101Z,3.40
2023-05-10T19:11:41.182Z,4.85
2023-05-10T19:14:07.695Z,5.40
2023-05-10T19:16:34.516Z,3.58
2023-05-10T19:19:02.956Z,3.78
2023-05-10T19:21:29.581Z,4.25
2023-05-10T19:23:58.486Z,3.25
2023-05-10T19:26:25.150Z,3.05
2023-05-10T19:28:52.476Z,3.42
2023-05-10T19:31:20.016Z,3.45
2023-05-10T19:33:47.103Z,5.15
2023-05-10T19:36:13.751Z,4.40
2023-05-10T19:38:40.302Z,5.47
2023-05-10T19:41:07.397Z,5.03
2023-05-10T19:43:36.980Z,6.03
2023-05-10T19:46:03.988Z,5.68
2023-05-10T19:48:31.752Z,6.15
2023-05-10T19:51:03.141Z,7.07
2023-05-10T19:53:30.171Z,7.07
2023-05-10T19:56:02.385Z,5.45
2023-05-10T19:58:29.700Z,7.63
2023-05-10T20:00:56.478Z,4.65
2023-05-10T20:03:23.103Z,7.10
2023-05-10T20:05:49.806Z,5.65
2023-05-10T20:08:16.757Z,6.85
2023-05-10T20:10:43.463Z,6.20
2023-05-10T20:13:10.067Z,5.80
2023-05-10T20:15:36.677Z,5.15
2023-05-10T20:18:03.768Z,6.72
2023-05-10T20:20:30.583Z,9.07
2023-05-10T20:23:00.362Z,5.45
2023-05-10T20:25:27.372Z,6.47
2023-05-10T20:27:54.557Z,5.32
2023-05-10T20:30:21.580Z,4.00
2023-05-10T20:32:48.134Z,4.80
2023-05-10T20:35:14.816Z,4.60
2023-05-10T20:37:41.290Z,7.50
2023-05-10T20:40:08.620Z,5.60
2023-05-10T20:42:35.544Z,6.05
2023-05-10T20:45:02.167Z,3.58
2023-05-10T20:47:28.732Z,4.43
2023-05-10T20:49:55.499Z,4.75
2023-05-10T20:52:23.411Z,4.30
2023-05-10T20:54:51.125Z,5.13
2023-05-10T20:57:17.674Z,5.72
2023-05-10T20:59:44.219Z,7.10
2023-05-10T21:02:10.785Z,8.02
2023-05-10T21:04:37.370Z,5.70
2023-05-10T21:07:03.937Z,6.20
2023-05-10T21:09:30.632Z,9.27
2023-05-10T21:11:58.157Z,7.38
2023-05-10T21:14:24.865Z,4.85
2023-05-10T21:16:51.747Z,6.35
2023-05-10T21:19:18.431Z,6.13
2023-05-10T21:21:45.104Z,6.63
2023-05-10T21:24:12.352Z,5.53
2023-05-10T21:26:38.899Z,6.45
2023-05-10T21:29:06.139Z,6.03
2023-05-10T21:31:32.751Z,5.90
2023-05-10T21:33:59.225Z,6.40
2023-05-10T21:36:26.106Z,8.02
2023-05-10T21:38:52.657Z,5.68
2023-05-10T21:41:19.185Z,7.47
2023-05-10T21:43:45.779Z,5.15
2023-05-10T21:46:13.528Z,5.90
2023-05-10T21:48:40.120Z,5.03
2023-05-10T21:51:06.960Z,7.38
2023-05-10T21:53:33.539Z,5.80
2023-05-10T21:55:59.977Z,7.22
2023-05-10T21:58:26.622Z,7.00
2023-05-10T22:00:53.159Z,8.52
2023-05-10T22:03:19.806Z,4.93
2023-05-10T22:05:46.437Z,6.05
2023-05-10T22:08:12.928Z,5.25
2023-05-10T22:10:39.401Z,8.20
2023-05-10T22:13:05.891Z,6.15
2023-05-10T22:15:34.150Z,5.43
2023-05-10T22:18:02.429Z,6.82
2023-05-10T22:20:29.180Z,4.63
2023-05-10T22:22:56.060Z,6.53
2023-05-10T22:25:22.760Z,5.75
2023-05-10T22:27:49.298Z,6.22
2023-05-10T22:30:16.305Z,5.38
2023-05-10T22:32:43.135Z,7.70
2023-05-10T22:35:10.057Z,8.25
2023-05-10T22:37:36.634Z,7.60
2023-05-10T22:40:03.953Z,8.15
2023-05-10T22:42:30.547Z,8.55
2023-05-10T22:44:57.161Z,7.80
2023-05-10T22:47:23.746Z,9.98
2023-05-10T22:49:50.314Z,10.95
2023-05-10T22:52:16.888Z,8.27
2023-05-10T22:54:44.295Z,10.20
2023-05-10T22:57:11.246Z,7.05
2023-05-10T22:59:37.799Z,6.50
2023-05-10T23:02:04.385Z,7.35
2023-05-10T23:04:31.204Z,7.15
2023-05-10T23:06:57.923Z,6.68
2023-05-10T23:09:24.512Z,5.35
2023-05-10T23:11:51.012Z,8.52
2023-05-10T23:14:17.489Z,7.78
2023-05-10T23:16:44.092Z,7.82
2023-05-10T23:19:10.874Z,8.18
2023-05-10T23:21:37.466Z,6.88
2023-05-10T23:24:04.193Z,8.43
2023-05-10T23:26:30.792Z,8.55
2023-05-10T23:28:57.338Z,6.95
2023-05-10T23:31:23.884Z,6.90
2023-05-10T23:33:50.404Z,7.63
2023-05-10T23:36:16.986Z,6.35
2023-05-10T23:38:43.558Z,7.78
2023-05-10T23:41:10.023Z,5.63
2023-05-10T23:43:36.693Z,6.95
2023-05-10T23:46:05.194Z,6.50
2023-05-10T23:48:31.990Z,6.18
2023-05-10T23:50:58.531Z,6.72
2023-05-10T23:53:25.170Z,7.40
2023-05-10T23:55:51.811Z,7.32
2023-05-10T23:58:18.375Z,6.75
